sensor_id;sensor_type;location;lat;lon;timestamp;pressure;altitude;pressure_sealevel;temperature;humidity
67434;BME280;54305;47.950;6.572;2022-10-16T00:00:33;94278.69;;;13.14;100.00
67434;BME280;54305;47.950;6.572;2022-10-16T00:02:59;94275.09;;;13.15;100.00
67434;BME280;54305;47.950;6.572;2022-10-16T00:05:24;94288.88;;;13.23;100.00
67434;BME280;54305;47.950;6.572;2022-10-16T00:07:50;94289.00;;;13.30;100.00
67434;BME280;54305;47.950;6.572;2022-10-16T00:10:15;94284.47;;;13.24;100.00
67434;BME280;54305;47.950;6.572;2022-10-16T00:12:40;94283.03;;;13.36;100.00
67434;BME280;54305;47.950;6.572;2022-10-16T00:15:05;94271.22;;;13.40;100.00
67434;BME280;54305;47.950;6.572;2022-10-16T00:17:33;94271.50;;;13.45;100.00
67434;BME280;54305;47.950;6.572;2022-10-16T00:19:59;94280.34;;;13.44;100.00
67434;BME280;54305;47.950;6.572;2022-10-16T00:22:24;94285.25;;;13.47;100.00
67434;BME280;54305;47.950;6.572;2022-10-16T00:24:49;94288.13;;;13.52;100.00
67434;BME280;54305;47.950;6.572;2022-10-16T00:27:15;94283.16;;;13.42;100.00
67434;BME280;54305;47.950;6.572;2022-10-16T00:29:41;94285.25;;;13.47;100.00
67434;BME280;54305;47.950;6.572;2022-10-16T00:32:06;94289.75;;;13.53;100.00
67434;BME280;54305;47.950;6.572;2022-10-16T00:34:32;94286.50;;;13.51;100.00
67434;BME280;54305;47.950;6.572;2022-10-16T00:36:57;94291.00;;;13.57;100.00
67434;BME280;54305;47.950;6.572;2022-10-16T00:39:22;94288.38;;;13.71;100.00
67434;BME280;54305;47.950;6.572;2022-10-16T00:41:48;94272.78;;;13.78;100.00
67434;BME280;54305;47.950;6.572;2022-10-16T00:46:58;94276.56;;;13.90;100.00
67434;BME280;54305;47.950;6.572;2022-10-16T00:49:23;94275.00;;;13.95;100.00
67434;BME280;54305;47.950;6.572;2022-10-16T00:51:49;94271.84;;;14.00;100.00
67434;BME280;54305;47.950;6.572;2022-10-16T00:56:43;94271.69;;;14.01;100.00
67434;BME280;54305;47.950;6.572;2022-10-16T00:59:20;94276.09;;;14.01;100.00
67434;BME280;54305;47.950;6.572;2022-10-16T01:01:45;94286.66;;;14.07;100.00
67434;BME280;54305;47.950;6.572;2022-10-16T01:04:11;94283.84;;;14.09;100.00
67434;BME280;54305;47.950;6.572;2022-10-16T01:11:38;94283.06;;;14.23;100.00
67434;BME280;54305;47.950;6.572;2022-10-16T01:14:11;94292.31;;;14.11;100.00
67434;BME280;54305;47.950;6.572;2022-10-16T01:16:40;94294.94;;;14.11;100.00
67434;BME280;54305;47.950;6.572;2022-10-16T01:19:10;94283.22;;;14.07;100.00
67434;BME280;54305;47.950;6.572;2022-10-16T01:21:40;94289.28;;;14.07;100.00
67434;BME280;54305;47.950;6.572;2022-10-16T01:31:54;94289.44;;;14.06;100.00
67434;BME280;54305;47.950;6.572;2022-10-16T01:34:44;94296.94;;;14.09;100.00
67434;BME280;54305;47.950;6.572;2022-10-16T01:37:15;94290.06;;;14.08;100.00
67434;BME280;54305;47.950;6.572;2022-10-16T01:39:42;94286.00;;;14.05;100.00
67434;BME280;54305;47.950;6.572;2022-10-16T01:44:41;94289.72;;;14.11;100.00
67434;BME280;54305;47.950;6.572;2022-10-16T01:47:08;94287.19;;;14.03;100.00
67434;BME280;54305;47.950;6.572;2022-10-16T01:49:36;94286.84;;;14.06;100.00
67434;BME280;54305;47.950;6.572;2022-10-16T01:52:05;94286.09;;;14.12;100.00
67434;BME280;54305;47.950;6.572;2022-10-16T01:54:30;94286.47;;;14.09;100.00
67434;BME280;54305;47.950;6.572;2022-10-16T01:56:57;94289.53;;;13.98;100.00
67434;BME280;54305;47.950;6.572;2022-10-16T01:59:24;94290.63;;;13.89;100.00
67434;BME280;54305;47.950;6.572;2022-10-16T02:01:52;94293.72;;;13.92;100.00
67434;BME280;54305;47.950;6.572;2022-10-16T02:06:50;94291.75;;;13.80;100.00
67434;BME280;54305;47.950;6.572;2022-10-16T02:09:15;94296.34;;;13.78;100.00
67434;BME280;54305;47.950;6.572;2022-10-16T02:11:42;94296.06;;;13.73;100.00
67434;BME280;54305;47.950;6.572;2022-10-16T02:14:07;94291.22;;;13.70;100.00
67434;BME280;54305;47.950;6.572;2022-10-16T02:16:40;94298.06;;;13.71;100.00
67434;BME280;54305;47.950;6.572;2022-10-16T02:19:06;94300.41;;;13.66;100.00
67434;BME280;54305;47.950;6.572;2022-10-16T02:24:24;94300.75;;;13.63;100.00
67434;BME280;54305;47.950;6.572;2022-10-16T02:26:52;94303.72;;;13.60;100.00
67434;BME280;54305;47.950;6.572;2022-10-16T02:29:24;94296.06;;;13.73;100.00
67434;BME280;54305;47.950;6.572;2022-10-16T02:31:53;94299.69;;;13.72;100.00
67434;BME280;54305;47.950;6.572;2022-10-16T02:34:20;94300.75;;;13.63;100.00
67434;BME280;54305;47.950;6.572;2022-10-16T02:36:47;94297.88;;;13.58;100.00
67434;BME280;54305;47.950;6.572;2022-10-16T02:39:13;94295.88;;;13.60;100.00
67434;BME280;54305;47.950;6.572;2022-10-16T02:41:39;94307.06;;;13.54;100.00
67434;BME280;54305;47.950;6.572;2022-10-16T02:44:04;94297.31;;;13.48;100.00
67434;BME280;54305;47.950;6.572;2022-10-16T02:46:29;94300.94;;;13.47;100.00
67434;BME280;54305;47.950;6.572;2022-10-16T02:48:55;94300.00;;;13.40;100.00
67434;BME280;54305;47.950;6.572;2022-10-16T02:51:20;94290.25;;;13.34;100.00
67434;BME280;54305;47.950;6.572;2022-10-16T02:53:45;94300.44;;;13.29;100.00
67434;BME280;54305;47.950;6.572;2022-10-16T02:56:11;94288.88;;;13.23;100.00
67434;BME280;54305;47.950;6.572;2022-10-16T02:58:36;94288.81;;;13.17;100.00
67434;BME280;54305;47.950;6.572;2022-10-16T03:01:02;94290.06;;;13.21;100.00
67434;BME280;54305;47.950;6.572;2022-10-16T03:03:27;94292.78;;;13.13;100.00
67434;BME280;54305;47.950;6.572;2022-10-16T03:05:53;94287.25;;;13.08;100.00
67434;BME280;54305;47.950;6.572;2022-10-16T03:08:18;94283.53;;;13.02;100.00
67434;BME280;54305;47.950;6.572;2022-10-16T03:10:48;94292.53;;;13.00;100.00
67434;BME280;54305;47.950;6.572;2022-10-16T03:13:13;94293.38;;;13.00;100.00
67434;BME280;54305;47.950;6.572;2022-10-16T03:15:38;94296.16;;;12.99;100.00
67434;BME280;54305;47.950;6.572;2022-10-16T03:18:04;94297.78;;;13.00;100.00
67434;BME280;54305;47.950;6.572;2022-10-16T03:20:31;94309.25;;;12.91;100.00
67434;BME280;54305;47.950;6.572;2022-10-16T03:22:57;94300.78;;;12.89;100.00
67434;BME280;54305;47.950;6.572;2022-10-16T03:25:22;94295.28;;;12.84;100.00
67434;BME280;54305;47.950;6.572;2022-10-16T03:27:47;94301.38;;;12.99;100.00
67434;BME280;54305;47.950;6.572;2022-10-16T03:30:12;94293.53;;;12.99;100.00
67434;BME280;54305;47.950;6.572;2022-10-16T03:32:38;94297.88;;;13.06;100.00
67434;BME280;54305;47.950;6.572;2022-10-16T03:35:03;94286.25;;;13.09;100.00
67434;BME280;54305;47.950;6.572;2022-10-16T03:37:28;94292.41;;;13.16;100.00
67434;BME280;54305;47.950;6.572;2022-10-16T03:39:54;94290.78;;;13.15;100.00
67434;BME280;54305;47.950;6.572;2022-10-16T03:42:19;94289.72;;;13.24;100.00
67434;BME280;54305;47.950;6.572;2022-10-16T03:44:45;94287.84;;;13.47;100.00
67434;BME280;54305;47.950;6.572;2022-10-16T03:47:13;94296.25;;;13.57;100.00
67434;BME280;54305;47.950;6.572;2022-10-16T03:49:38;94292.19;;;13.54;100.00
67434;BME280;54305;47.950;6.572;2022-10-16T03:52:04;94303.53;;;13.32;100.00
67434;BME280;54305;47.950;6.572;2022-10-16T03:54:29;94299.44;;;13.30;100.00
67434;BME280;54305;47.950;6.572;2022-10-16T03:56:55;94299.91;;;13.19;100.00
67434;BME280;54305;47.950;6.572;2022-10-16T03:59:20;94295.91;;;13.08;100.00
67434;BME280;54305;47.950;6.572;2022-10-16T04:01:45;94296.56;;;13.10;100.00
67434;BME280;54305;47.950;6.572;2022-10-16T04:04:10;94287.44;;;13.06;100.00
67434;BME280;54305;47.950;6.572;2022-10-16T04:06:36;94290.50;;;13.10;100.00
67434;BME280;54305;47.950;6.572;2022-10-16T04:09:01;94298.00;;;13.13;100.00
67434;BME280;54305;47.950;6.572;2022-10-16T04:11:26;94308.22;;;13.00;100.00
67434;BME280;54305;47.950;6.572;2022-10-16T04:13:52;94306.13;;;12.95;100.00
67434;BME280;54305;47.950;6.572;2022-10-16T04:16:17;94320.69;;;12.98;100.00
67434;BME280;54305;47.950;6.572;2022-10-16T04:18:43;94319.38;;;12.94;100.00
67434;BME280;54305;47.950;6.572;2022-10-16T04:21:08;94311.88;;;12.91;100.00
67434;BME280;54305;47.950;6.572;2022-10-16T04:23:33;94326.56;;;12.92;100.00
67434;BME280;54305;47.950;6.572;2022-10-16T04:25:59;94328.53;;;12.90;100.00
67434;BME280;54305;47.950;6.572;2022-10-16T04:28:24;94335.38;;;12.91;100.00
67434;BME280;54305;47.950;6.572;2022-10-16T04:30:50;94330.16;;;12.91;100.00
67434;BME280;54305;47.950;6.572;2022-10-16T04:33:15;94335.38;;;12.91;100.00
67434;BME280;54305;47.950;6.572;2022-10-16T04:35:41;94342.25;;;12.92;100.00
67434;BME280;54305;47.950;6.572;2022-10-16T04:38:06;94340.28;;;12.94;100.00
67434;BME280;54305;47.950;6.572;2022-10-16T04:40:31;94347.00;;;12.96;100.00
67434;BME280;54305;47.950;6.572;2022-10-16T04:43:01;94346.31;;;12.94;100.00
67434;BME280;54305;47.950;6.572;2022-10-16T04:45:27;94347.97;;;13.18;100.00
67434;BME280;54305;47.950;6.572;2022-10-16T04:47:52;94355.63;;;13.19;100.00
67434;BME280;54305;47.950;6.572;2022-10-16T04:50:17;94363.28;;;13.21;100.00
67434;BME280;54305;47.950;6.572;2022-10-16T04:52:46;94354.88;;;13.11;100.00
67434;BME280;54305;47.950;6.572;2022-10-16T04:55:11;94349.63;;;13.11;100.00
67434;BME280;54305;47.950;6.572;2022-10-16T04:57:36;94350.19;;;13.06;100.00
67434;BME280;54305;47.950;6.572;2022-10-16T05:00:02;94351.34;;;13.04;100.00
67434;BME280;54305;47.950;6.572;2022-10-16T05:02:28;94351.22;;;12.97;100.00
67434;BME280;54305;47.950;6.572;2022-10-16T05:04:53;94344.84;;;12.92;100.00
67434;BME280;54305;47.950;6.572;2022-10-16T05:07:19;94353.06;;;12.89;100.00
67434;BME280;54305;47.950;6.572;2022-10-16T05:09:44;94354.06;;;12.88;100.00
67434;BME280;54305;47.950;6.572;2022-10-16T05:12:09;94359.63;;;12.85;100.00
67434;BME280;54305;47.950;6.572;2022-10-16T05:14:34;94357.34;;;12.82;100.00
67434;BME280;54305;47.950;6.572;2022-10-16T05:17:00;94368.78;;;12.81;100.00
67434;BME280;54305;47.950;6.572;2022-10-16T05:19:25;94360.31;;;12.79;100.00
67434;BME280;54305;47.950;6.572;2022-10-16T05:21:51;94365.19;;;12.82;100.00
67434;BME280;54305;47.950;6.572;2022-10-16T05:24:16;94360.50;;;12.77;100.00
67434;BME280;54305;47.950;6.572;2022-10-16T05:26:41;94373.09;;;12.74;100.00
67434;BME280;54305;47.950;6.572;2022-10-16T05:29:07;94373.38;;;12.79;100.00
67434;BME280;54305;47.950;6.572;2022-10-16T05:31:32;94382.19;;;12.78;100.00
67434;BME280;54305;47.950;6.572;2022-10-16T05:33:58;94382.19;;;12.78;100.00
67434;BME280;54305;47.950;6.572;2022-10-16T05:36:23;94386.16;;;12.74;100.00
67434;BME280;54305;47.950;6.572;2022-10-16T05:38:50;94392.19;;;12.74;100.00
67434;BME280;54305;47.950;6.572;2022-10-16T05:41:15;94389.53;;;12.82;100.00
67434;BME280;54305;47.950;6.572;2022-10-16T05:43:46;94387.22;;;12.87;100.00
67434;BME280;54305;47.950;6.572;2022-10-16T05:46:11;94378.25;;;12.82;100.00
67434;BME280;54305;47.950;6.572;2022-10-16T05:48:37;94369.75;;;12.88;100.00
67434;BME280;54305;47.950;6.572;2022-10-16T05:51:03;94375.94;;;12.87;100.00
67434;BME280;54305;47.950;6.572;2022-10-16T05:53:29;94379.81;;;12.91;100.00
67434;BME280;54305;47.950;6.572;2022-10-16T05:55:57;94387.00;;;12.97;100.00
67434;BME280;54305;47.950;6.572;2022-10-16T05:58:23;94398.75;;;13.01;100.00
67434;BME280;54305;47.950;6.572;2022-10-16T06:00:55;94397.00;;;13.16;100.00
67434;BME280;54305;47.950;6.572;2022-10-16T06:03:20;94412.88;;;13.14;100.00
67434;BME280;54305;47.950;6.572;2022-10-16T06:05:45;94416.00;;;13.10;100.00
67434;BME280;54305;47.950;6.572;2022-10-16T06:08:11;94403.63;;;13.04;100.00
67434;BME280;54305;47.950;6.572;2022-10-16T06:10:38;94409.56;;;12.98;100.00
67434;BME280;54305;47.950;6.572;2022-10-16T06:13:04;94407.41;;;13.01;100.00
67434;BME280;54305;47.950;6.572;2022-10-16T06:15:29;94389.22;;;13.08;100.00
67434;BME280;54305;47.950;6.572;2022-10-16T06:17:54;94404.53;;;13.11;100.00
67434;BME280;54305;47.950;6.572;2022-10-16T06:20:19;94417.19;;;13.67;100.00
67434;BME280;54305;47.950;6.572;2022-10-16T06:22:45;94430.59;;;13.64;100.00
67434;BME280;54305;47.950;6.572;2022-10-16T06:25:10;94432.03;;;13.52;100.00
67434;BME280;54305;47.950;6.572;2022-10-16T06:27:35;94434.66;;;13.52;100.00
67434;BME280;54305;47.950;6.572;2022-10-16T06:30:01;94439.47;;;13.40;100.00
67434;BME280;54305;47.950;6.572;2022-10-16T06:32:29;94445.75;;;13.31;100.00
67434;BME280;54305;47.950;6.572;2022-10-16T06:34:55;94439.25;;;13.27;100.00
67434;BME280;54305;47.950;6.572;2022-10-16T06:37:20;94443.59;;;13.35;100.00
67434;BME280;54305;47.950;6.572;2022-10-16T06:39:48;94447.22;;;13.34;100.00
67434;BME280;54305;47.950;6.572;2022-10-16T06:42:13;94446.72;;;13.53;100.00
67434;BME280;54305;47.950;6.572;2022-10-16T06:44:38;94442.63;;;13.73;100.00
67434;BME280;54305;47.950;6.572;2022-10-16T06:47:03;94446.09;;;13.88;100.00
67434;BME280;54305;47.950;6.572;2022-10-16T06:49:29;94444.13;;;13.90;100.00
67434;BME280;54305;47.950;6.572;2022-10-16T06:51:54;94441.31;;;13.91;100.00
67434;BME280;54305;47.950;6.572;2022-10-16T06:54:20;94440.34;;;13.92;100.00
67434;BME280;54305;47.950;6.572;2022-10-16T06:56:45;94445.75;;;13.91;100.00
67434;BME280;54305;47.950;6.572;2022-10-16T06:59:10;94445.03;;;13.97;100.00
67434;BME280;54305;47.950;6.572;2022-10-16T07:01:36;94437.34;;;13.95;100.00
67434;BME280;54305;47.950;6.572;2022-10-16T07:04:01;94424.44;;;14.08;100.00
67434;BME280;54305;47.950;6.572;2022-10-16T07:06:27;94418.66;;;14.13;100.00
67434;BME280;54305;47.950;6.572;2022-10-16T07:08:55;94429.41;;;14.18;100.00
67434;BME280;54305;47.950;6.572;2022-10-16T07:11:21;94438.19;;;14.54;100.00
67434;BME280;54305;47.950;6.572;2022-10-16T07:13:47;94428.25;;;14.64;99.46
67434;BME280;54305;47.950;6.572;2022-10-16T07:16:14;94432.56;;;14.71;100.00
67434;BME280;54305;47.950;6.572;2022-10-16T07:18:40;94427.50;;;14.70;100.00
67434;BME280;54305;47.950;6.572;2022-10-16T07:21:08;94447.41;;;14.64;100.00
67434;BME280;54305;47.950;6.572;2022-10-16T07:23:34;94444.41;;;14.67;100.00
67434;BME280;54305;47.950;6.572;2022-10-16T07:26:00;94461.66;;;14.76;100.00
67434;BME280;54305;47.950;6.572;2022-10-16T07:28:26;94468.09;;;14.74;100.00
67434;BME280;54305;47.950;6.572;2022-10-16T07:30:51;94465.03;;;14.70;100.00
67434;BME280;54305;47.950;6.572;2022-10-16T07:33:16;94460.28;;;14.95;100.00
67434;BME280;54305;47.950;6.572;2022-10-16T07:35:49;94465.34;;;15.32;99.48
67434;BME280;54305;47.950;6.572;2022-10-16T07:38:14;94470.31;;;15.41;100.00
67434;BME280;54305;47.950;6.572;2022-10-16T07:40:39;94479.25;;;15.47;100.00
67434;BME280;54305;47.950;6.572;2022-10-16T07:43:05;94486.19;;;15.54;100.00
67434;BME280;54305;47.950;6.572;2022-10-16T07:45:30;94486.69;;;15.64;96.55
67434;BME280;54305;47.950;6.572;2022-10-16T07:47:55;94489.09;;;15.87;98.78
67434;BME280;54305;47.950;6.572;2022-10-16T07:50:20;94490.22;;;15.99;93.82
67434;BME280;54305;47.950;6.572;2022-10-16T07:52:46;94485.22;;;16.04;90.85
67434;BME280;54305;47.950;6.572;2022-10-16T07:55:11;94496.03;;;16.15;93.66
67434;BME280;54305;47.950;6.572;2022-10-16T07:57:36;94502.28;;;16.14;94.37
67434;BME280;54305;47.950;6.572;2022-10-16T08:00:02;94501.88;;;16.17;91.84
67434;BME280;54305;47.950;6.572;2022-10-16T08:02:27;94509.06;;;16.30;93.00
67434;BME280;54305;47.950;6.572;2022-10-16T08:04:53;94509.94;;;16.37;94.05
67434;BME280;54305;47.950;6.572;2022-10-16T08:07:19;94511.38;;;16.67;92.29
67434;BME280;54305;47.950;6.572;2022-10-16T08:09:44;94519.84;;;16.69;88.39
67434;BME280;54305;47.950;6.572;2022-10-16T08:12:17;94522.34;;;16.77;86.81
67434;BME280;54305;47.950;6.572;2022-10-16T08:14:43;94530.00;;;16.72;89.88
67434;BME280;54305;47.950;6.572;2022-10-16T08:17:08;94527.50;;;16.57;89.35
67434;BME280;54305;47.950;6.572;2022-10-16T08:19:33;94535.56;;;16.56;89.22
67434;BME280;54305;47.950;6.572;2022-10-16T08:21:59;94534.88;;;16.75;89.13
67434;BME280;54305;47.950;6.572;2022-10-16T08:24:25;94530.47;;;16.82;91.41
67434;BME280;54305;47.950;6.572;2022-10-16T08:26:53;94532.50;;;16.80;98.16
67434;BME280;54305;47.950;6.572;2022-10-16T08:29:18;94529.31;;;16.57;92.07
67434;BME280;54305;47.950;6.572;2022-10-16T08:31:43;94529.91;;;16.59;95.66
67434;BME280;54305;47.950;6.572;2022-10-16T08:34:08;94536.09;;;16.45;89.36
67434;BME280;54305;47.950;6.572;2022-10-16T08:36:34;94530.22;;;16.43;89.24
67434;BME280;54305;47.950;6.572;2022-10-16T08:38:59;94537.50;;;16.41;93.99
67434;BME280;54305;47.950;6.572;2022-10-16T08:48:50;94541.34;;;16.24;92.33
67434;BME280;54305;47.950;6.572;2022-10-16T08:51:21;94546.13;;;16.14;93.37
67434;BME280;54305;47.950;6.572;2022-10-16T08:54:01;94551.50;;;16.06;90.90
67434;BME280;54305;47.950;6.572;2022-10-16T08:56:27;94557.41;;;16.08;92.85
67434;BME280;54305;47.950;6.572;2022-10-16T08:58:53;94556.16;;;16.04;97.15
67434;BME280;54305;47.950;6.572;2022-10-16T09:01:20;94557.78;;;16.05;99.00
67434;BME280;54305;47.950;6.572;2022-10-16T09:06:36;94569.41;;;15.96;91.82
67434;BME280;54305;47.950;6.572;2022-10-16T09:16:52;94571.41;;;15.94;93.95
67434;BME280;54305;47.950;6.572;2022-10-16T09:19:28;94579.19;;;16.02;94.93
67434;BME280;54305;47.950;6.572;2022-10-16T09:21:56;94576.41;;;16.10;98.10
67434;BME280;54305;47.950;6.572;2022-10-16T09:24:23;94580.03;;;16.09;100.00
67434;BME280;54305;47.950;6.572;2022-10-16T09:26:49;94570.53;;;16.08;91.99
67434;BME280;54305;47.950;6.572;2022-10-16T09:29:15;94579.69;;;16.12;98.45
67434;BME280;54305;47.950;6.572;2022-10-16T09:31:41;94580.03;;;16.09;90.80
67434;BME280;54305;47.950;6.572;2022-10-16T09:34:08;94588.19;;;16.14;92.46
67434;BME280;54305;47.950;6.572;2022-10-16T09:36:40;94583.78;;;16.21;87.97
67434;BME280;54305;47.950;6.572;2022-10-16T09:39:08;94590.28;;;16.25;90.25
67434;BME280;54305;47.950;6.572;2022-10-16T09:41:41;94590.75;;;16.28;93.08
67434;BME280;54305;47.950;6.572;2022-10-16T09:47:00;94585.66;;;16.48;91.44
67434;BME280;54305;47.950;6.572;2022-10-16T09:49:26;94588.63;;;16.66;91.19
67434;BME280;54305;47.950;6.572;2022-10-16T09:52:02;94583.94;;;16.89;95.31
67434;BME280;54305;47.950;6.572;2022-10-16T09:54:28;94575.06;;;17.30;87.02
67434;BME280;54305;47.950;6.572;2022-10-16T09:57:03;94576.41;;;17.54;87.72
67434;BME280;54305;47.950;6.572;2022-10-16T09:59:29;94582.38;;;17.82;89.94
67434;BME280;54305;47.950;6.572;2022-10-16T10:01:56;94583.97;;;17.76;85.19
67434;BME280;54305;47.950;6.572;2022-10-16T10:04:25;94584.22;;;17.94;93.17
67434;BME280;54305;47.950;6.572;2022-10-16T10:06:55;94586.34;;;17.65;84.55
67434;BME280;54305;47.950;6.572;2022-10-16T10:11:57;94592.06;;;17.81;86.39
67434;BME280;54305;47.950;6.572;2022-10-16T10:14:34;94587.03;;;17.33;81.76
67434;BME280;54305;47.950;6.572;2022-10-16T10:27:31;94587.31;;;17.17;82.26
67434;BME280;54305;47.950;6.572;2022-10-16T10:30:01;94587.31;;;17.17;86.91
67434;BME280;54305;47.950;6.572;2022-10-16T10:32:41;94588.16;;;17.17;89.40
67434;BME280;54305;47.950;6.572;2022-10-16T10:35:14;94579.19;;;17.12;86.44
67434;BME280;54305;47.950;6.572;2022-10-16T10:42:56;94582.50;;;17.27;85.98
67434;BME280;54305;47.950;6.572;2022-10-16T10:45:26;94591.84;;;17.29;81.81
67434;BME280;54305;47.950;6.572;2022-10-16T11:02:48;94573.06;;;17.86;82.32
67434;BME280;54305;47.950;6.572;2022-10-16T11:05:34;94577.91;;;17.89;80.22
67434;BME280;54305;47.950;6.572;2022-10-16T11:08:07;94565.78;;;17.94;83.07
67434;BME280;54305;47.950;6.572;2022-10-16T11:10:38;94569.38;;;17.74;79.24
67434;BME280;54305;47.950;6.572;2022-10-16T11:14:09;94583.84;;;17.44;78.80
67434;BME280;54305;47.950;6.572;2022-10-16T11:16:02;94571.72;;;17.56;82.50
67434;BME280;54305;47.950;6.572;2022-10-16T11:18:41;94567.91;;;17.65;78.84
67434;BME280;54305;47.950;6.572;2022-10-16T11:21:10;94568.00;;;17.37;77.84
67434;BME280;54305;47.950;6.572;2022-10-16T11:23:40;94561.16;;;17.43;80.41
67434;BME280;54305;47.950;6.572;2022-10-16T11:26:11;94567.09;;;17.58;83.41
67434;BME280;54305;47.950;6.572;2022-10-16T11:28:45;94551.28;;;17.58;83.60
67434;BME280;54305;47.950;6.572;2022-10-16T11:46:49;94534.22;;;18.40;79.06
67434;BME280;54305;47.950;6.572;2022-10-16T11:49:18;94525.28;;;18.60;76.29
67434;BME280;54305;47.950;6.572;2022-10-16T11:51:48;94516.31;;;18.68;77.25
67434;BME280;54305;47.950;6.572;2022-10-16T11:54:32;94528.06;;;19.86;78.60
67434;BME280;54305;47.950;6.572;2022-10-16T11:57:03;94515.66;;;22.22;68.89
67434;BME280;54305;47.950;6.572;2022-10-16T12:05:22;94528.91;;;23.32;56.44
67434;BME280;54305;47.950;6.572;2022-10-16T12:08:00;94517.13;;;24.68;54.54
67434;BME280;54305;47.950;6.572;2022-10-16T12:10:27;94501.81;;;26.47;51.04
67434;BME280;54305;47.950;6.572;2022-10-16T12:12:53;94506.84;;;26.70;49.00
67434;BME280;54305;47.950;6.572;2022-10-16T12:15:29;94500.88;;;27.36;46.27
67434;BME280;54305;47.950;6.572;2022-10-16T12:17:55;94503.59;;;27.46;48.78
67434;BME280;54305;47.950;6.572;2022-10-16T12:20:25;94499.97;;;27.72;45.47
67434;BME280;54305;47.950;6.572;2022-10-16T12:22:55;94491.63;;;28.40;46.11
67434;BME280;54305;47.950;6.572;2022-10-16T12:28:25;94482.66;;;27.28;45.23
67434;BME280;54305;47.950;6.572;2022-10-16T12:30:41;94492.75;;;27.21;44.53
67434;BME280;54305;47.950;6.572;2022-10-16T12:33:19;94491.38;;;25.71;47.86
67434;BME280;54305;47.950;6.572;2022-10-16T12:35:46;94490.59;;;25.49;48.57
67434;BME280;54305;47.950;6.572;2022-10-16T12:38:19;94481.94;;;24.66;50.31
67434;BME280;54305;47.950;6.572;2022-10-16T12:40:46;94486.59;;;24.92;51.58
67434;BME280;54305;47.950;6.572;2022-10-16T12:45:46;94476.00;;;27.36;49.18
67434;BME280;54305;47.950;6.572;2022-10-16T12:48:21;94472.31;;;27.05;46.28
67434;BME280;54305;47.950;6.572;2022-10-16T12:50:47;94474.16;;;28.23;47.64
67434;BME280;54305;47.950;6.572;2022-10-16T12:55:47;94476.06;;;28.67;43.68
67434;BME280;54305;47.950;6.572;2022-10-16T13:00:54;94472.34;;;28.63;43.39
67434;BME280;54305;47.950;6.572;2022-10-16T13:09:07;94470.59;;;27.87;44.57
67434;BME280;54305;47.950;6.572;2022-10-16T13:11:56;94474.19;;;29.91;43.06
67434;BME280;54305;47.950;6.572;2022-10-16T13:14:31;94479.53;;;28.33;42.03
67434;BME280;54305;47.950;6.572;2022-10-16T13:22:11;94478.41;;;27.32;47.53
67434;BME280;54305;47.950;6.572;2022-10-16T13:24:49;94475.13;;;27.25;47.43
67434;BME280;54305;47.950;6.572;2022-10-16T13:29:53;94472.22;;;29.38;40.46
67434;BME280;54305;47.950;6.572;2022-10-16T13:32:20;94460.53;;;28.69;43.98
67434;BME280;54305;47.950;6.572;2022-10-16T13:34:47;94467.22;;;27.50;44.50
67434;BME280;54305;47.950;6.572;2022-10-16T13:37:21;94477.09;;;25.82;48.63
67434;BME280;54305;47.950;6.572;2022-10-16T13:39:46;94468.75;;;25.52;48.80
67434;BME280;54305;47.950;6.572;2022-10-16T13:44:44;94485.75;;;25.08;52.96
67434;BME280;54305;47.950;6.572;2022-10-16T13:47:15;94478.06;;;23.96;54.11
67434;BME280;54305;47.950;6.572;2022-10-16T13:49:43;94472.97;;;23.67;55.96
67434;BME280;54305;47.950;6.572;2022-10-16T13:52:16;94470.25;;;23.50;55.43
67434;BME280;54305;47.950;6.572;2022-10-16T13:54:43;94481.81;;;22.70;56.33
67434;BME280;54305;47.950;6.572;2022-10-16T13:57:08;94478.13;;;23.45;57.84
67434;BME280;54305;47.950;6.572;2022-10-16T13:59:34;94485.09;;;23.46;55.45
67434;BME280;54305;47.950;6.572;2022-10-16T14:04:46;94484.25;;;22.83;56.63
67434;BME280;54305;47.950;6.572;2022-10-16T14:07:16;94494.59;;;22.96;56.39
67434;BME280;54305;47.950;6.572;2022-10-16T14:09:47;94482.13;;;23.08;59.52
67434;BME280;54305;47.950;6.572;2022-10-16T14:12:12;94482.53;;;23.51;59.65
67434;BME280;54305;47.950;6.572;2022-10-16T14:14:42;94486.63;;;23.70;55.82
67434;BME280;54305;47.950;6.572;2022-10-16T14:17:13;94477.41;;;23.61;57.83
67434;BME280;54305;47.950;6.572;2022-10-16T14:19:39;94480.69;;;23.40;54.82
67434;BME280;54305;47.950;6.572;2022-10-16T14:22:11;94483.97;;;23.19;57.51
67434;BME280;54305;47.950;6.572;2022-10-16T14:24:47;94484.78;;;23.59;55.95
67434;BME280;54305;47.950;6.572;2022-10-16T14:27:29;94482.16;;;22.85;56.69
67434;BME280;54305;47.950;6.572;2022-10-16T14:32:32;94489.59;;;23.34;56.74
67434;BME280;54305;47.950;6.572;2022-10-16T14:34:58;94486.22;;;23.78;57.32
67434;BME280;54305;47.950;6.572;2022-10-16T14:37:24;94493.91;;;23.12;56.90
67434;BME280;54305;47.950;6.572;2022-10-16T14:39:50;94497.09;;;22.22;58.83
67434;BME280;54305;47.950;6.572;2022-10-16T14:42:16;94499.44;;;21.71;61.22
67434;BME280;54305;47.950;6.572;2022-10-16T14:44:44;94495.84;;;21.95;61.80
67434;BME280;54305;47.950;6.572;2022-10-16T14:47:12;94500.53;;;22.11;64.18
67434;BME280;54305;47.950;6.572;2022-10-16T14:49:38;94501.53;;;21.99;64.90
67434;BME280;54305;47.950;6.572;2022-10-16T14:52:07;94495.31;;;21.75;62.24
67434;BME280;54305;47.950;6.572;2022-10-16T14:54:33;94497.19;;;21.57;67.69
67434;BME280;54305;47.950;6.572;2022-10-16T14:56:58;94499.56;;;21.11;70.04
67434;BME280;54305;47.950;6.572;2022-10-16T15:01:55;94498.75;;;21.28;70.59
67434;BME280;54305;47.950;6.572;2022-10-16T15:04:21;94501.25;;;21.23;71.08
67434;BME280;54305;47.950;6.572;2022-10-16T15:06:46;94500.97;;;21.13;71.00
67434;BME280;54305;47.950;6.572;2022-10-16T15:09:12;94502.38;;;20.98;71.36
67434;BME280;54305;47.950;6.572;2022-10-16T15:11:37;94498.69;;;21.35;71.93